createdAt,value
2018-10-04T00:01:54.399Z,8.85
2018-10-04T00:03:58.255Z,8.90
2018-10-04T00:06:02.123Z,8.58
2018-10-04T00:08:06.335Z,8.23
2018-10-04T00:10:10.164Z,7.60
2018-10-04T00:12:13.971Z,7.37
2018-10-04T00:14:17.815Z,7.15
2018-10-04T00:16:21.649Z,7.67
2018-10-04T00:18:25.535Z,7.67
2018-10-04T00:20:29.427Z,6.47
2018-10-04T00:22:33.293Z,7.55
2018-10-04T00:24:37.532Z,7.83
2018-10-04T00:26:41.393Z,7.33
2018-10-04T00:28:45.189Z,7.75
2018-10-04T00:30:49.101Z,7.47
2018-10-04T00:32:52.982Z,7.70
2018-10-04T00:34:56.834Z,9.33
2018-10-04T00:37:00.771Z,8.93
2018-10-04T00:39:05.919Z,8.63
2018-10-04T00:41:09.776Z,7.42
2018-10-04T00:43:13.661Z,8.35
2018-10-04T00:45:17.554Z,9.33
2018-10-04T00:47:21.395Z,8.28
2018-10-04T00:49:25.275Z,7.58
2018-10-04T00:51:29.601Z,8.25
2018-10-04T00:53:33.458Z,8.35
2018-10-04T00:55:37.329Z,7.53
2018-10-04T00:57:41.884Z,8.23
2018-10-04T00:59:45.774Z,7.78
2018-10-04T01:01:49.624Z,7.03
2018-10-04T01:03:53.516Z,7.20
2018-10-04T01:05:57.342Z,6.45
2018-10-04T01:08:01.185Z,6.22
2018-10-04T01:10:05.876Z,7.03
2018-10-04T01:12:09.729Z,7.12
2018-10-04T01:14:13.633Z,6.17
2018-10-04T01:16:17.537Z,7.67
2018-10-04T01:18:32.478Z,7.78
2018-10-04T01:20:36.355Z,7.42
2018-10-04T01:22:40.229Z,7.92
2018-10-04T01:24:44.077Z,7.97
2018-10-04T01:26:47.955Z,7.83
2018-10-04T01:28:52.299Z,7.45
2018-10-04T01:30:56.117Z,7.62
2018-10-04T01:33:00.276Z,7.80
2018-10-04T01:35:04.477Z,8.08
2018-10-04T01:37:08.329Z,7.53
2018-10-04T01:39:12.200Z,7.47
2018-10-04T01:41:16.084Z,7.85
2018-10-04T01:43:19.979Z,7.87
2018-10-04T01:45:23.866Z,7.37
2018-10-04T01:47:27.803Z,8.45
2018-10-04T01:49:31.718Z,8.00
2018-10-04T01:51:35.557Z,7.87
2018-10-04T01:53:39.441Z,7.55
2018-10-04T01:55:43.301Z,7.33
2018-10-04T01:57:47.264Z,7.97
2018-10-04T01:59:51.117Z,7.90
2018-10-04T02:01:54.998Z,6.90
2018-10-04T02:03:58.920Z,7.37
2018-10-04T02:06:02.766Z,7.30
2018-10-04T02:08:06.649Z,7.72
2018-10-04T02:10:10.480Z,8.18
2018-10-04T02:12:14.376Z,7.70
2018-10-04T02:14:18.242Z,7.25
2018-10-04T02:16:22.112Z,7.95
2018-10-04T02:18:26.008Z,7.72
2018-10-04T02:20:29.972Z,7.33
2018-10-04T02:22:33.803Z,7.72
2018-10-04T02:24:37.705Z,7.60
2018-10-04T02:26:41.604Z,7.15
2018-10-04T02:28:45.501Z,8.20
2018-10-04T02:30:49.349Z,8.40
2018-10-04T02:32:53.202Z,6.85
2018-10-04T02:34:57.093Z,6.95
2018-10-04T02:37:00.930Z,7.40
2018-10-04T02:39:05.656Z,7.42
2018-10-04T02:41:09.511Z,6.90
2018-10-04T02:43:13.337Z,7.33
2018-10-04T02:45:17.235Z,6.90
2018-10-04T02:47:21.105Z,7.03
2018-10-04T02:49:25.071Z,7.10
2018-10-04T02:51:28.932Z,7.47
2018-10-04T02:53:32.845Z,7.20
2018-10-04T02:55:41.906Z,7.08
2018-10-04T02:57:45.774Z,7.10
2018-10-04T02:59:49.705Z,7.50
2018-10-04T03:01:53.909Z,7.30
2018-10-04T03:03:58.232Z,8.03
2018-10-04T03:06:02.145Z,7.12
2018-10-04T03:08:06.007Z,7.58
2018-10-04T03:10:09.959Z,7.65
2018-10-04T03:12:13.824Z,7.53
2018-10-04T03:14:17.688Z,7.42
2018-10-04T03:16:21.564Z,7.35
2018-10-04T03:18:25.942Z,7.05
2018-10-04T03:20:29.829Z,6.83
2018-10-04T03:22:33.696Z,7.12
2018-10-04T03:24:37.533Z,7.30
2018-10-04T03:26:41.373Z,7.50
2018-10-04T03:28:45.200Z,7.22
2018-10-04T03:30:49.059Z,6.90
2018-10-04T03:32:52.920Z,7.78
2018-10-04T03:34:56.813Z,7.08
2018-10-04T03:37:00.672Z,7.55
2018-10-04T03:39:05.624Z,7.62
2018-10-04T03:41:09.592Z,7.95
2018-10-04T03:43:13.407Z,7.37
2018-10-04T03:45:17.260Z,8.13
2018-10-04T03:47:21.095Z,8.03
2018-10-04T03:49:25.337Z,7.87
2018-10-04T03:51:29.444Z,7.87
2018-10-04T03:53:33.552Z,7.28
2018-10-04T03:55:37.477Z,7.00
2018-10-04T03:57:41.800Z,7.85
2018-10-04T03:59:45.673Z,7.50
2018-10-04T04:01:49.627Z,6.60
2018-10-04T04:03:53.662Z,6.55
2018-10-04T04:05:57.702Z,7.45
2018-10-04T04:08:01.933Z,7.12
2018-10-04T04:10:06.589Z,6.85
2018-10-04T04:12:10.442Z,7.97
2018-10-04T04:14:14.299Z,7.42
2018-10-04T04:16:18.180Z,6.80
2018-10-04T04:18:22.070Z,6.90
2018-10-04T04:20:25.995Z,7.58
2018-10-04T04:22:29.868Z,6.95
2018-10-04T04:24:33.765Z,6.90
2018-10-04T04:26:37.651Z,7.10
2018-10-04T04:28:41.509Z,7.28
2018-10-04T04:30:45.385Z,7.15
2018-10-04T04:32:49.274Z,6.58
2018-10-04T04:34:53.298Z,7.42
2018-10-04T04:36:57.348Z,6.37
2018-10-04T04:39:01.184Z,6.83
2018-10-04T04:41:05.019Z,7.40
2018-10-04T04:43:08.968Z,8.90
2018-10-04T04:45:12.716Z,7.90
2018-10-04T04:47:16.649Z,8.00
2018-10-04T04:49:20.764Z,7.30
2018-10-04T04:51:24.624Z,7.28
2018-10-04T04:53:34.492Z,7.45
2018-10-04T04:55:38.464Z,8.25
2018-10-04T04:57:45.397Z,7.45
2018-10-04T05:00:04.696Z,7.72
2018-10-04T05:02:22.168Z,8.03
2018-10-04T05:04:35.943Z,7.17
2018-10-04T05:06:51.863Z,7.62
2018-10-04T05:08:55.675Z,7.17
2018-10-04T05:10:59.549Z,7.95
2018-10-04T05:13:18.620Z,7.17
2018-10-04T05:15:36.146Z,7.05
2018-10-04T05:17:53.746Z,6.92
2018-10-04T05:20:00.562Z,7.47
2018-10-04T05:22:04.513Z,7.37
2018-10-04T05:24:08.388Z,7.15
2018-10-04T05:26:12.330Z,8.13
2018-10-04T05:28:16.186Z,7.62
2018-10-04T05:30:20.264Z,8.08
2018-10-04T05:32:24.625Z,11.53
2018-10-04T05:34:28.560Z,9.55
2018-10-04T05:36:32.464Z,9.73
2018-10-04T05:38:36.332Z,7.95
2018-10-04T05:40:41.249Z,8.60
2018-10-04T05:42:45.199Z,8.68
2018-10-04T05:44:49.070Z,7.92
2018-10-04T05:46:53.166Z,8.53
2018-10-04T05:48:57.569Z,8.00
2018-10-04T05:51:01.408Z,7.55
2018-10-04T05:53:05.371Z,8.45
2018-10-04T05:55:10.231Z,7.97
2018-10-04T05:57:14.100Z,7.97
2018-10-04T05:59:17.986Z,7.83
2018-10-04T06:01:22.667Z,7.95
2018-10-04T06:03:26.644Z,7.97
2018-10-04T06:05:30.620Z,7.12
2018-10-04T06:07:35.034Z,7.25
2018-10-04T06:09:38.880Z,7.25
2018-10-04T06:11:42.847Z,6.30
2018-10-04T06:13:46.803Z,6.67
2018-10-04T06:15:50.754Z,6.45
2018-10-04T06:17:54.958Z,6.92
2018-10-04T06:19:58.821Z,6.87
2018-10-04T06:22:02.819Z,6.62
2018-10-04T06:24:07.425Z,6.90
2018-10-04T06:26:11.296Z,5.62
2018-10-04T06:28:15.397Z,5.95
2018-10-04T06:30:19.294Z,6.05
2018-10-04T06:32:23.117Z,6.03
2018-10-04T06:34:27.046Z,5.53
2018-10-04T06:36:30.786Z,4.53
2018-10-04T06:41:04.921Z,4.33
2018-10-04T06:43:08.529Z,4.27
2018-10-04T06:45:23.959Z,4.60
2018-10-04T06:47:28.033Z,3.60
2018-10-04T06:49:32.509Z,3.57
2018-10-04T06:51:38.259Z,4.77
2018-10-04T06:53:41.857Z,4.10
2018-10-04T06:55:59.468Z,4.03
2018-10-04T06:58:03.153Z,3.90
2018-10-04T07:00:07.293Z,4.10
2018-10-04T07:05:23.565Z,4.00
2018-10-04T07:07:27.105Z,3.57
2018-10-04T07:09:30.658Z,4.37
2018-10-04T07:11:34.235Z,4.60
2018-10-04T07:13:37.833Z,4.37
2018-10-04T07:15:41.349Z,4.27
2018-10-04T07:17:44.965Z,4.77
2018-10-04T07:19:50.397Z,5.20
2018-10-04T07:21:53.988Z,4.83
2018-10-04T07:23:57.659Z,4.83
2018-10-04T07:26:01.672Z,4.80
2018-10-04T07:28:05.271Z,5.10
2018-10-04T07:30:09.229Z,4.40
2018-10-04T07:32:12.771Z,4.20
2018-10-04T07:34:16.373Z,4.77
2018-10-04T07:36:19.999Z,4.60
2018-10-04T07:38:23.577Z,3.93
2018-10-04T07:40:27.136Z,4.57
2018-10-04T07:42:31.457Z,4.10
2018-10-04T07:44:35.104Z,4.77
2018-10-04T07:46:38.762Z,4.57
2018-10-04T07:48:42.376Z,4.63
2018-10-04T07:50:46.636Z,4.43
2018-10-04T07:52:50.326Z,4.20
2018-10-04T07:54:54.752Z,5.10
2018-10-04T07:56:58.361Z,4.70
2018-10-04T07:59:01.950Z,4.90
2018-10-04T08:01:05.942Z,4.80
2018-10-04T08:03:09.428Z,5.80
2018-10-04T08:05:12.945Z,4.90
2018-10-04T08:07:16.514Z,4.67
2018-10-04T08:09:20.177Z,4.70
2018-10-04T08:11:23.739Z,4.37
2018-10-04T08:13:27.287Z,4.67
2018-10-04T08:15:30.910Z,4.93
2018-10-04T08:17:34.607Z,5.10
2018-10-04T08:19:38.182Z,5.47
2018-10-04T08:21:41.764Z,5.00
2018-10-04T08:23:45.270Z,4.83
2018-10-04T08:25:48.872Z,5.60
2018-10-04T08:27:52.560Z,5.37
2018-10-04T08:29:56.178Z,5.97
2018-10-04T08:32:14.351Z,5.47
2018-10-04T08:34:36.158Z,5.47
2018-10-04T08:36:51.791Z,4.80
2018-10-04T08:38:55.403Z,4.73
2018-10-04T08:40:59.642Z,5.13
2018-10-04T08:43:03.211Z,4.70
2018-10-04T08:45:07.208Z,4.53
2018-10-04T08:47:10.776Z,4.57
2018-10-04T08:49:14.751Z,5.13
2018-10-04T08:51:22.473Z,4.33
2018-10-04T08:53:26.044Z,5.00
2018-10-04T08:55:34.886Z,5.53
2018-10-04T08:57:38.461Z,5.10
2018-10-04T08:59:42.405Z,5.53
2018-10-04T09:01:46.138Z,4.77
2018-10-04T09:03:55.035Z,5.00
2018-10-04T09:05:58.724Z,4.93
2018-10-04T09:08:02.506Z,5.37
2018-10-04T09:10:06.292Z,4.93
2018-10-04T09:12:09.888Z,4.83
2018-10-04T09:14:13.486Z,4.77
2018-10-04T09:16:17.235Z,4.30
2018-10-04T09:18:20.861Z,4.87
2018-10-04T09:20:24.489Z,4.73
2018-10-04T09:22:28.137Z,4.47
2018-10-04T09:24:31.714Z,6.37
2018-10-04T09:26:38.370Z,5.00
2018-10-04T09:28:46.195Z,4.37
2018-10-04T09:30:55.162Z,4.73
2018-10-04T09:32:58.735Z,4.70
2018-10-04T09:35:02.461Z,4.77
2018-10-04T09:37:06.115Z,4.57
2018-10-04T09:39:11.515Z,4.07
2018-10-04T09:41:15.415Z,3.40
2018-10-04T09:43:19.207Z,4.37
2018-10-04T09:45:23.325Z,4.07
2018-10-04T09:47:28.520Z,4.27
2018-10-04T09:49:32.661Z,4.70
2018-10-04T09:51:41.503Z,3.50
2018-10-04T09:53:50.639Z,3.53
2018-10-04T09:55:59.574Z,3.47
2018-10-04T09:58:03.921Z,3.97
2018-10-04T10:00:15.977Z,4.37
2018-10-04T10:02:24.354Z,4.13
2018-10-04T10:04:28.235Z,4.27
2018-10-04T10:06:32.518Z,3.47
2018-10-04T10:08:37.487Z,3.43
2018-10-04T10:10:42.175Z,3.43
2018-10-04T10:12:46.454Z,3.33
2018-10-04T10:14:50.122Z,4.20
2018-10-04T10:16:53.735Z,4.43
2018-10-04T10:18:57.308Z,3.90
2018-10-04T10:21:00.964Z,3.77
2018-10-04T10:23:04.742Z,4.00
2018-10-04T10:25:08.481Z,3.90
2018-10-04T10:27:12.118Z,4.00
2018-10-04T10:29:15.789Z,3.80
2018-10-04T10:31:19.567Z,4.27
2018-10-04T10:33:25.230Z,4.33
2018-10-04T10:35:28.733Z,3.57
2018-10-04T10:37:32.561Z,3.40
2018-10-04T10:39:36.192Z,3.73
2018-10-04T10:41:39.814Z,3.80
2018-10-04T10:43:45.538Z,3.87
2018-10-04T10:45:49.238Z,4.00
2018-10-04T10:47:52.860Z,3.90
2018-10-04T10:49:58.959Z,3.87
2018-10-04T10:52:02.690Z,4.07
2018-10-04T10:54:06.935Z,3.40
2018-10-04T10:56:10.628Z,3.63
2018-10-04T10:58:14.408Z,3.50
2018-10-04T11:00:18.049Z,3.67
2018-10-04T11:02:21.671Z,3.80
2018-10-04T11:04:25.255Z,4.50
2018-10-04T11:06:28.945Z,3.80
2018-10-04T11:08:32.564Z,4.07
2018-10-04T11:10:38.471Z,4.33
2018-10-04T11:12:40.019Z,3.40
2018-10-04T11:14:43.699Z,3.30
2018-10-04T11:16:47.343Z,3.97
2018-10-04T11:18:50.984Z,2.80
2018-10-04T11:20:54.641Z,3.20
2018-10-04T11:22:58.188Z,3.30
2018-10-04T11:25:01.784Z,3.67
2018-10-04T11:27:05.454Z,4.43
2018-10-04T11:29:09.349Z,3.57
2018-10-04T11:31:13.015Z,3.83
2018-10-04T11:33:16.752Z,3.33
2018-10-04T11:35:20.417Z,3.20
2018-10-04T11:37:24.188Z,3.00
2018-10-04T11:39:27.997Z,2.93
2018-10-04T11:41:31.951Z,2.90
2018-10-04T11:43:35.785Z,3.10
2018-10-04T11:45:40.928Z,3.23
2018-10-04T11:47:45.753Z,3.40
2018-10-04T11:49:49.322Z,2.50
2018-10-04T11:51:52.834Z,3.17
2018-10-04T11:53:59.163Z,3.10
2018-10-04T11:56:02.744Z,3.93
2018-10-04T11:58:15.201Z,2.70
2018-10-04T12:00:19.909Z,2.73
2018-10-04T12:02:24.571Z,3.40
2018-10-04T12:04:28.204Z,3.33
2018-10-04T12:06:31.834Z,2.87
2018-10-04T12:08:35.983Z,3.33
2018-10-04T12:10:39.621Z,2.93
2018-10-04T12:12:43.272Z,2.87
2018-10-04T12:14:47.058Z,3.33
2018-10-04T12:16:50.678Z,3.63
2018-10-04T12:18:54.353Z,2.73
2018-10-04T12:20:58.200Z,3.10
2018-10-04T12:23:01.836Z,3.33
2018-10-04T12:25:12.015Z,3.43
2018-10-04T12:27:16.157Z,3.63
2018-10-04T12:29:19.737Z,3.13
2018-10-04T12:31:23.428Z,2.90
2018-10-04T12:33:27.095Z,3.23
2018-10-04T12:35:31.578Z,3.50
2018-10-04T12:37:35.336Z,3.23
2018-10-04T12:39:39.184Z,2.90
2018-10-04T12:41:42.714Z,3.30
2018-10-04T12:43:46.315Z,3.20
2018-10-04T12:45:50.060Z,2.90
2018-10-04T12:47:53.730Z,3.47
2018-10-04T12:49:57.460Z,3.77
2018-10-04T12:52:00.976Z,3.23
2018-10-04T12:54:05.197Z,2.97
2018-10-04T12:56:08.857Z,3.10
2018-10-04T12:58:12.459Z,2.90
2018-10-04T13:00:20.332Z,3.30
2018-10-04T13:02:24.596Z,3.30
2018-10-04T13:04:28.454Z,3.33
2018-10-04T13:06:32.118Z,3.10
2018-10-04T13:08:35.948Z,3.13
2018-10-04T13:10:39.727Z,3.13
2018-10-04T13:12:43.283Z,3.37
2018-10-04T13:14:47.038Z,4.03
2018-10-04T13:16:50.681Z,3.00
2018-10-04T13:18:54.309Z,3.20
2018-10-04T13:20:58.018Z,3.37
2018-10-04T13:23:01.711Z,3.40
2018-10-04T13:25:05.764Z,2.97
2018-10-04T13:27:09.391Z,4.07
2018-10-04T13:29:13.077Z,3.80
2018-10-04T13:31:17.094Z,3.57
2018-10-04T13:33:20.748Z,3.80
2018-10-04T13:35:24.514Z,3.20
2018-10-04T13:37:28.201Z,3.67
2018-10-04T13:39:31.900Z,3.30
2018-10-04T13:41:35.531Z,2.77
2018-10-04T13:43:39.878Z,3.30
2018-10-04T13:45:45.416Z,3.03
2018-10-04T13:47:49.706Z,3.13
2018-10-04T13:49:53.428Z,3.13
2018-10-04T13:51:57.301Z,3.33
2018-10-04T13:54:01.621Z,2.93
2018-10-04T13:56:05.837Z,3.00
2018-10-04T13:58:09.721Z,2.80
2018-10-04T14:00:14.178Z,2.83
2018-10-04T14:02:17.768Z,3.03
2018-10-04T14:04:21.948Z,3.23
2018-10-04T14:06:25.672Z,3.23
2018-10-04T14:08:29.553Z,3.50
2018-10-04T14:10:33.187Z,3.70
2018-10-04T14:12:36.789Z,2.97
2018-10-04T14:14:40.500Z,3.27
2018-10-04T14:16:44.246Z,2.90
2018-10-04T14:18:48.209Z,3.73
2018-10-04T14:20:52.606Z,2.87
2018-10-04T14:22:56.285Z,3.50
2018-10-04T14:24:59.977Z,2.77
2018-10-04T14:27:03.620Z,3.00
2018-10-04T14:29:07.283Z,3.30
2018-10-04T14:31:10.901Z,3.13
2018-10-04T14:33:14.795Z,3.00
2018-10-04T14:35:18.850Z,2.50
2018-10-04T14:37:22.976Z,2.63
2018-10-04T14:39:26.860Z,2.87
2018-10-04T14:41:30.817Z,2.70
2018-10-04T14:43:34.481Z,3.23
2018-10-04T14:45:38.968Z,2.90
2018-10-04T14:47:42.676Z,3.20
2018-10-04T14:49:46.417Z,2.90
2018-10-04T14:51:51.083Z,3.63
2018-10-04T14:53:55.008Z,3.60
2018-10-04T14:55:59.111Z,3.37
2018-10-04T14:58:02.777Z,3.20
2018-10-04T15:00:07.352Z,3.50
2018-10-04T15:02:11.548Z,2.93
2018-10-04T15:04:16.257Z,2.90
2018-10-04T15:06:20.366Z,3.17
2018-10-04T15:08:24.008Z,2.73
2018-10-04T15:10:27.697Z,2.67
2018-10-04T15:12:32.596Z,3.40
2018-10-04T15:14:37.254Z,3.00
2018-10-04T15:16:40.950Z,2.73
2018-10-04T15:18:44.940Z,2.97
2018-10-04T15:20:49.896Z,3.13
2018-10-04T15:22:53.525Z,3.07
2018-10-04T15:24:58.228Z,3.03
2018-10-04T15:27:06.323Z,3.30
2018-10-04T15:29:12.921Z,3.77
2018-10-04T15:31:17.203Z,3.00
2018-10-04T15:33:25.805Z,4.13
2018-10-04T15:35:30.363Z,3.67
2018-10-04T15:37:35.505Z,4.20
2018-10-04T15:39:39.622Z,3.60
2018-10-04T15:41:46.425Z,3.67
2018-10-04T15:43:51.012Z,3.63
2018-10-04T15:45:55.869Z,3.53
2018-10-04T15:48:04.247Z,4.00
2018-10-04T15:50:08.958Z,3.60
2018-10-04T15:52:13.321Z,3.30
2018-10-04T15:54:17.680Z,3.47
2018-10-04T15:56:21.402Z,4.00
2018-10-04T15:58:25.067Z,5.10
2018-10-04T16:00:28.758Z,3.93
2018-10-04T16:02:32.436Z,4.73
2018-10-04T16:04:38.752Z,4.00
2018-10-04T16:06:44.985Z,3.97
2018-10-04T16:08:48.716Z,3.77
2018-10-04T16:10:53.396Z,3.80
2018-10-04T16:12:57.846Z,4.03
2018-10-04T16:15:01.584Z,3.73
2018-10-04T16:17:05.853Z,4.47
2018-10-04T16:19:09.772Z,4.43
2018-10-04T16:21:13.631Z,4.43
2018-10-04T16:23:18.110Z,4.63
2018-10-04T16:25:21.850Z,5.63
2018-10-04T16:27:31.633Z,5.13
2018-10-04T16:29:37.457Z,5.03
2018-10-04T16:31:44.851Z,5.23
2018-10-04T16:33:49.087Z,5.60
2018-10-04T16:35:53.233Z,6.07
2018-10-04T16:38:02.118Z,5.23
2018-10-04T16:40:15.137Z,5.23
2018-10-04T16:42:18.813Z,6.13
2018-10-04T16:44:23.336Z,6.30
2018-10-04T16:46:27.045Z,5.63
2018-10-04T16:48:30.704Z,5.33
2018-10-04T16:50:34.298Z,5.50
2018-10-04T16:52:38.038Z,6.50
2018-10-04T16:54:41.843Z,5.83
2018-10-04T16:56:58.197Z,5.93
2018-10-04T16:59:01.899Z,6.40
2018-10-04T17:01:05.718Z,6.17
2018-10-04T17:03:11.038Z,5.57
2018-10-04T17:05:15.603Z,6.37
2018-10-04T17:07:20.111Z,5.50
2018-10-04T17:09:25.089Z,5.20
2018-10-04T17:11:30.869Z,5.67
2018-10-04T17:13:42.098Z,5.50
2018-10-04T17:15:45.829Z,5.07
2018-10-04T17:17:50.611Z,4.90
2018-10-04T17:19:56.752Z,5.40
2018-10-04T17:22:00.417Z,5.67
2018-10-04T17:24:04.630Z,5.33
2018-10-04T17:26:15.511Z,4.67
2018-10-04T17:28:19.953Z,4.83
2018-10-04T17:30:26.314Z,4.60
2018-10-04T17:32:30.573Z,4.10
2018-10-04T17:34:35.201Z,4.97
2018-10-04T17:36:39.505Z,4.40
2018-10-04T17:38:45.931Z,4.40
2018-10-04T17:40:51.020Z,5.13
2018-10-04T17:42:54.734Z,4.93
2018-10-04T17:44:58.541Z,4.47
2018-10-04T17:47:02.225Z,4.80
2018-10-04T17:49:07.187Z,4.77
2018-10-04T17:51:12.034Z,4.10
2018-10-04T17:53:16.860Z,4.70
2018-10-04T17:55:21.047Z,4.40
2018-10-04T17:57:24.764Z,4.93
2018-10-04T17:59:29.383Z,5.17
2018-10-04T18:01:34.116Z,4.77
2018-10-04T18:03:37.782Z,4.90
2018-10-04T18:05:42.122Z,4.80
2018-10-04T18:07:45.823Z,5.20
2018-10-04T18:09:49.498Z,5.50
2018-10-04T18:11:53.263Z,5.03
2018-10-04T18:13:56.893Z,5.00
2018-10-04T18:16:01.079Z,5.20
2018-10-04T18:18:07.298Z,4.67
2018-10-04T18:22:33.636Z,5.93
2018-10-04T18:24:43.958Z,5.70
2018-10-04T18:26:50.015Z,6.03
2018-10-04T18:29:04.604Z,5.77
2018-10-04T18:31:13.893Z,6.13
2018-10-04T18:33:19.072Z,6.10
2018-10-04T18:35:23.492Z,6.17
2018-10-04T18:37:28.051Z,5.87
2018-10-04T18:39:32.717Z,6.30
2018-10-04T18:41:44.019Z,6.80
2018-10-04T18:43:48.388Z,5.90
2018-10-04T18:45:52.099Z,6.67
2018-10-04T18:47:58.154Z,6.33
2018-10-04T18:50:01.729Z,6.80
2018-10-04T18:52:05.378Z,7.30
2018-10-04T18:54:09.025Z,5.80
2018-10-04T18:56:14.279Z,6.87
2018-10-04T18:58:18.798Z,7.00
2018-10-04T19:00:24.427Z,6.78
2018-10-04T19:02:28.366Z,6.78
2018-10-04T19:04:33.778Z,7.10
2018-10-04T19:06:37.771Z,6.97
2018-10-04T19:08:41.672Z,6.70
2018-10-04T19:10:45.638Z,7.17
2018-10-04T19:12:49.845Z,6.20
2018-10-04T19:14:55.762Z,6.30
2018-10-04T19:17:02.244Z,6.33
2018-10-04T19:19:07.186Z,7.15
2018-10-04T19:26:23.993Z,6.70
2018-10-04T19:28:36.642Z,6.80
2018-10-04T19:30:40.608Z,6.53
2018-10-04T19:32:44.551Z,6.03
2018-10-04T19:34:49.365Z,6.22
2018-10-04T19:36:53.356Z,6.90
2018-10-04T19:38:57.345Z,7.35
2018-10-04T19:41:01.307Z,6.92
2018-10-04T19:43:05.297Z,7.65
2018-10-04T19:45:09.665Z,7.12
2018-10-04T19:47:13.578Z,6.55
2018-10-04T19:49:18.147Z,6.15
2018-10-04T19:51:22.116Z,6.10
2018-10-04T19:53:26.077Z,6.60
2018-10-04T19:55:30.039Z,7.22
2018-10-04T19:57:33.983Z,7.00
2018-10-04T19:59:38.777Z,7.12
2018-10-04T20:01:43.571Z,6.90
2018-10-04T20:03:47.648Z,9.35
2018-10-04T20:05:52.084Z,7.15
2018-10-04T20:07:57.043Z,6.83
2018-10-04T20:10:01.667Z,6.53
2018-10-04T20:12:05.726Z,6.67
2018-10-04T20:14:10.365Z,6.50
2018-10-04T20:16:14.352Z,6.67
2018-10-04T20:18:18.385Z,6.50
2018-10-04T20:20:23.796Z,6.53
2018-10-04T20:22:27.844Z,6.10
2018-10-04T20:24:31.916Z,7.22
2018-10-04T20:26:35.880Z,6.50
2018-10-04T20:28:39.782Z,6.78
2018-10-04T20:30:43.636Z,5.95
2018-10-04T20:32:47.605Z,6.17
2018-10-04T20:34:51.640Z,6.95
2018-10-04T20:36:55.642Z,7.10
2018-10-04T20:38:59.702Z,7.58
2018-10-04T20:41:03.654Z,6.92
2018-10-04T20:43:07.845Z,6.10
2018-10-04T20:45:12.532Z,6.40
2018-10-04T20:47:16.602Z,6.95
2018-10-04T20:49:20.613Z,7.33
2018-10-04T20:51:24.563Z,7.55
2018-10-04T20:53:28.701Z,7.80
2018-10-04T20:55:33.434Z,7.75
2018-10-04T20:57:37.333Z,8.23
2018-10-04T20:59:41.736Z,7.42
2018-10-04T21:01:45.822Z,7.92
2018-10-04T21:03:49.748Z,8.33
2018-10-04T21:05:53.718Z,9.35
2018-10-04T21:07:57.626Z,8.63
2018-10-04T21:10:01.549Z,8.40
2018-10-04T21:12:05.553Z,8.88
2018-10-04T21:14:09.697Z,9.13
2018-10-04T21:16:13.672Z,8.28
2018-10-04T21:18:18.155Z,7.72
2018-10-04T21:20:22.110Z,7.35
2018-10-04T21:22:26.055Z,8.35
2018-10-04T21:24:30.419Z,9.10
2018-10-04T21:26:34.342Z,8.60
2018-10-04T21:28:38.555Z,8.63
2018-10-04T21:30:42.466Z,7.55
2018-10-04T21:32:46.537Z,7.67
2018-10-04T21:34:50.522Z,9.18
2018-10-04T21:36:54.973Z,9.03
2018-10-04T21:38:58.937Z,10.30
2018-10-04T21:41:03.837Z,9.33
2018-10-04T21:43:08.332Z,8.90
2018-10-04T21:45:13.012Z,8.28
2018-10-04T21:47:17.148Z,8.88
2018-10-04T21:49:21.084Z,8.25
2018-10-04T21:51:25.118Z,8.20
2018-10-04T21:53:29.102Z,8.95
2018-10-04T21:55:33.477Z,7.90
2018-10-04T21:57:37.511Z,9.13
2018-10-04T21:59:41.597Z,9.60
2018-10-04T22:01:45.648Z,9.60
2018-10-04T22:03:49.747Z,8.68
2018-10-04T22:05:54.703Z,8.63
2018-10-04T22:07:58.755Z,8.38
2018-10-04T22:10:02.721Z,8.35
2018-10-04T22:12:11.063Z,7.15
2018-10-04T22:14:15.424Z,7.83
2018-10-04T22:16:19.311Z,8.03
2018-10-04T22:18:23.318Z,7.65
2018-10-04T22:20:27.380Z,7.70
2018-10-04T22:22:31.364Z,8.35
2018-10-04T22:24:35.343Z,7.05
2018-10-04T22:26:39.353Z,6.62
2018-10-04T22:28:43.393Z,7.33
2018-10-04T22:30:47.404Z,7.33
2018-10-04T22:32:51.946Z,8.65
2018-10-04T22:34:55.911Z,8.28
2018-10-04T22:37:00.109Z,8.33
2018-10-04T22:39:05.133Z,8.23
2018-10-04T22:41:09.036Z,9.83
2018-10-04T22:43:13.406Z,9.18
2018-10-04T22:45:18.768Z,10.63
2018-10-04T22:47:22.762Z,10.48
2018-10-04T22:49:26.733Z,10.28
2018-10-04T22:51:31.824Z,10.40
2018-10-04T22:53:36.208Z,9.40
2018-10-04T22:55:40.371Z,10.23
2018-10-04T22:57:44.800Z,9.83
2018-10-04T22:59:48.795Z,10.13
2018-10-04T23:01:52.900Z,10.65
2018-10-04T23:03:56.831Z,10.68
2018-10-04T23:06:00.778Z,10.18
2018-10-04T23:08:04.716Z,9.30
2018-10-04T23:10:09.037Z,9.90
2018-10-04T23:12:13.035Z,10.23
2018-10-04T23:14:17.106Z,9.95
2018-10-04T23:16:21.079Z,10.58
2018-10-04T23:18:25.572Z,10.93
2018-10-04T23:20:29.580Z,10.43
2018-10-04T23:22:33.485Z,10.15
2018-10-04T23:24:43.445Z,11.28
2018-10-04T23:26:47.440Z,9.45
2018-10-04T23:28:51.468Z,9.68
2018-10-04T23:30:55.519Z,9.13
2018-10-04T23:32:59.424Z,8.83
2018-10-04T23:35:03.368Z,8.85
2018-10-04T23:37:07.300Z,8.03
2018-10-04T23:39:12.100Z,7.75
2018-10-04T23:41:15.993Z,8.75
2018-10-04T23:43:19.904Z,9.00
2018-10-04T23:45:23.780Z,8.53
2018-10-04T23:47:28.136Z,8.88
2018-10-04T23:49:32.133Z,8.48
2018-10-04T23:51:35.992Z,8.80
2018-10-04T23:53:40.753Z,8.68
2018-10-04T23:55:44.659Z,9.25
2018-10-04T23:57:48.565Z,10.58
2018-10-04T23:59:52.462Z,9.25
